Flight Track Log - Related Links

Times and Time Zones

All times are in EDT time to prevent confusion due to time zone crossing. See the SIA422 flight status page for this flight to view local times or setup timezone preferences in your user account.

Time Position Orientation Groundspeed Altitude Reporting Facility
EDT Latitude Longitude Course Direction KTS MPH feet Rate Location/Type
Wed 02:42:15 PM 1.3722 103.9613 302° West  Level Estimated
Wed 02:43:15 PM 1.4382 103.8566 302° West  Level Estimated
Wed 02:44:15 PM 1.5041 103.7518 302° West  Level Estimated
Wed 02:45:15 PM 1.5701 103.6471 302° West  Level Estimated
Wed 02:46:15 PM 1.6360 103.5424 302° West  Level Estimated
Wed 02:47:15 PM 1.7020 103.4377 302° West  Level Estimated
Wed 02:48:15 PM 1.7679 103.3329 302° West  Level Estimated
Wed 02:49:15 PM 1.8338 103.2282 302° West  Level Estimated
Wed 02:50:15 PM 1.8998 103.1234 302° West  Level Estimated
Wed 02:51:15 PM 1.9657 103.0187 302° West  Level Estimated
Wed 02:52:15 PM 2.0316 102.9139 302° West  Level Estimated
Wed 02:53:15 PM 2.0975 102.8091 302° West  Level Estimated
Wed 02:54:15 PM 2.1634 102.7043 302° West  Level Estimated
Wed 02:55:15 PM 2.2293 102.5995 302° West  Level Estimated
Wed 02:56:15 PM 2.2952 102.4947 302° West  Level Estimated
Wed 02:57:15 PM 2.3611 102.3899 302° West  Level Estimated
Wed 02:58:15 PM 2.4269 102.2851 302° West  Level Estimated
Wed 02:59:15 PM 2.4928 102.1802 302° West  Level Estimated
Wed 03:00:15 PM 2.5586 102.0754 302° West  Level Estimated
Wed 03:01:15 PM 2.6245 101.9705 302° West  Level Estimated
Wed 03:02:15 PM 2.6903 101.8656 302° West  Level Estimated
Wed 03:03:15 PM 2.7561 101.7608 302° West  Level Estimated
Wed 03:04:15 PM 2.8220 101.6559 302° West  Level Estimated
Wed 03:05:15 PM 2.8878 101.5510 302° West  Level Estimated
Wed 03:06:15 PM 2.9536 101.4460 302° West  Level Estimated
Wed 03:07:15 PM 3.0194 101.3411 302° West  Level Estimated
Wed 03:08:15 PM 3.0851 101.2362 302° West  Level Estimated
Wed 03:09:15 PM 3.1509 101.1312 302° West  Level Estimated
Wed 03:10:15 PM 3.2167 101.0262 302° West  Level Estimated
Wed 03:11:15 PM 3.2824 100.9212 302° West  Level Estimated
Wed 03:12:15 PM 3.3482 100.8163 302° West  Level Estimated
Wed 03:13:15 PM 3.4139 100.7112 302° West  Level Estimated
Wed 03:14:15 PM 3.4796 100.6062 302° West  Level Estimated
Wed 03:15:15 PM 3.5453 100.5012 302° West  Level Estimated
Wed 03:16:15 PM 3.6110 100.3961 302° West  Level Estimated
Wed 03:17:15 PM 3.6767 100.2911 302° West  Level Estimated
Wed 03:18:15 PM 3.7423 100.1860 302° West  Level Estimated
Wed 03:19:15 PM 3.8080 100.0809 302° West  Level Estimated
Wed 03:20:15 PM 3.8736 99.9758 302° West  Level Estimated
Wed 03:21:15 PM 3.9392 99.8706 302° West  Level Estimated
Wed 03:22:15 PM 4.0048 99.7655 302° West  Level Estimated
Wed 03:23:15 PM 4.0704 99.6603 302° West  Level Estimated
Wed 03:24:15 PM 4.1360 99.5551 302° West  Level Estimated
Wed 03:25:15 PM 4.2016 99.4499 302° West  Level Estimated
Wed 03:26:15 PM 4.2672 99.3447 302° West  Level Estimated
Wed 03:27:15 PM 4.3327 99.2395 302° West  Level Estimated
Wed 03:28:15 PM 4.3982 99.1342 302° West  Level Estimated
Wed 03:29:15 PM 4.4637 99.0289 302° West  Level Estimated
Wed 03:30:15 PM 4.5292 98.9237 302° West  Level Estimated
Wed 03:31:15 PM 4.5947 98.8183 302° West  Level Estimated
Wed 03:32:15 PM 4.6602 98.7130 302° West  Level Estimated
Wed 03:33:15 PM 4.7256 98.6077 302° West  Level Estimated
Wed 03:34:15 PM 4.7911 98.5023 302° West  Level Estimated
Wed 03:35:15 PM 4.8565 98.3969 302° West  Level Estimated
Wed 03:36:15 PM 4.9219 98.2915 302° West  Level Estimated
Wed 03:37:15 PM 4.9873 98.1861 302° West  Level Estimated
Wed 03:38:15 PM 5.0527 98.0806 302° West  Level Estimated
Wed 03:39:15 PM 5.1180 97.9751 302° West  Level Estimated
Wed 03:40:15 PM 5.1834 97.8697 302° West  Level Estimated
Wed 03:41:15 PM 5.2487 97.7641 302° West  Level Estimated
Wed 03:42:15 PM 5.3140 97.6586 302° West  Level Estimated
Wed 03:43:15 PM 5.3793 97.5530 302° West  Level Estimated
Wed 03:44:15 PM 5.4445 97.4474 302° West  Level Estimated
Wed 03:45:15 PM 5.5098 97.3418 302° West  Level Estimated
Wed 03:46:15 PM 5.5750 97.2362 302° West  Level Estimated
Wed 03:47:15 PM 5.6402 97.1306 302° West  Level Estimated
Wed 03:48:15 PM 5.7054 97.0249 302° West  Level Estimated
Wed 03:49:15 PM 5.7706 96.9192 302° West  Level Estimated
Wed 03:50:15 PM 5.8357 96.8135 302° West  Level Estimated
Wed 03:51:15 PM 5.9008 96.7077 302° West  Level Estimated
Wed 03:52:15 PM 5.9660 96.6019 302° West  Level Estimated
Wed 03:53:15 PM 6.0310 96.4961 302° West  Level Estimated
Wed 03:54:15 PM 6.0961 96.3903 302° West  Level Estimated
Wed 03:55:15 PM 6.1612 96.2845 302° West  Level Estimated
Wed 03:56:15 PM 6.2262 96.1786 302° West  Level Estimated
Wed 03:57:15 PM 6.2912 96.0727 302° West  Level Estimated
Wed 03:58:15 PM 6.3562 95.9668 302° West  Level Estimated
Wed 03:59:15 PM 6.4212 95.8608 302° West  Level Estimated
Wed 04:00:15 PM 6.4861 95.7548 302° West  Level Estimated
Wed 04:01:15 PM 6.5510 95.6488 302° West  Level Estimated
Wed 04:02:15 PM 6.6159 95.5427 302° West  Level Estimated
Wed 04:03:15 PM 6.6808 95.4367 302° West  Level Estimated
Wed 04:04:15 PM 6.7456 95.3306 302° West  Level Estimated
Wed 04:05:15 PM 6.8105 95.2245 302° West  Level Estimated
Wed 04:06:15 PM 6.8753 95.1183 302° West  Level Estimated
Wed 04:07:15 PM 6.9401 95.0121 302° West  Level Estimated
Wed 04:08:15 PM 7.0048 94.9059 302° West  Level Estimated
Wed 04:09:15 PM 7.0696 94.7997 302° West  Level Estimated
Wed 04:10:15 PM 7.1343 94.6934 302° West  Level Estimated
Wed 04:11:15 PM 7.1990 94.5871 302° West  Level Estimated
Wed 04:12:15 PM 7.2636 94.4808 302° West  Level Estimated
Wed 04:13:15 PM 7.3283 94.3744 301° West  Level Estimated
Wed 04:14:15 PM 7.3929 94.2680 301° West  Level Estimated
Wed 04:15:15 PM 7.4575 94.1616 301° West  Level Estimated
Wed 04:16:15 PM 7.5220 94.0552 301° West  Level Estimated
Wed 04:17:15 PM 7.5866 93.9487 301° West  Level Estimated
Wed 04:18:15 PM 7.6511 93.8422 301° West  Level Estimated
Wed 04:19:15 PM 7.7156 93.7356 301° West  Level Estimated
Wed 04:20:15 PM 7.7800 93.6290 301° West  Level Estimated
Wed 04:21:15 PM 7.8445 93.5224 301° West  Level Estimated
Wed 04:22:15 PM 7.9089 93.4158 301° West  Level Estimated
Wed 04:23:15 PM 7.9732 93.3091 301° West  Level Estimated
Wed 04:24:15 PM 8.0376 93.2023 301° West  Level Estimated
Wed 04:25:15 PM 8.1019 93.0956 301° West  Level Estimated
Wed 04:26:15 PM 8.1662 92.9888 301° West  Level Estimated
Wed 04:27:15 PM 8.2305 92.8820 301° West  Level Estimated
Wed 04:28:15 PM 8.2947 92.7751 301° West  Level Estimated
Wed 04:29:15 PM 8.3589 92.6683 301° West  Level Estimated
Wed 04:30:15 PM 8.4231 92.5613 301° West  Level Estimated
Wed 04:31:15 PM 8.4873 92.4544 301° West  Level Estimated
Wed 04:32:15 PM 8.5514 92.3474 301° West  Level Estimated
Wed 04:33:15 PM 8.6155 92.2403 301° West  Level Estimated
Wed 04:34:15 PM 8.6796 92.1333 301° West  Level Estimated
Wed 04:35:15 PM 8.7436 92.0262 301° West  Level Estimated
Wed 04:36:15 PM 8.8076 91.9190 301° West  Level Estimated
Wed 04:37:15 PM 8.8716 91.8119 301° West  Level Estimated
Wed 04:38:15 PM 8.9355 91.7047 301° West  Level Estimated
Wed 04:39:15 PM 8.9995 91.5974 301° West  Level Estimated
Wed 04:40:15 PM 9.0633 91.4901 301° West  Level Estimated
Wed 04:41:15 PM 9.1272 91.3828 301° West  Level Estimated
Wed 04:42:15 PM 9.1910 91.2754 301° West  Level Estimated
Wed 04:43:15 PM 9.2548 91.1680 301° West  Level Estimated
Wed 04:44:15 PM 9.3186 91.0606 301° West  Level Estimated
Wed 04:45:15 PM 9.3823 90.9531 301° West  Level Estimated
Wed 04:46:15 PM 9.4460 90.8456 301° West  Level Estimated
Wed 04:47:15 PM 9.5096 90.7380 301° West  Level Estimated
Wed 04:48:15 PM 9.5733 90.6304 301° West  Level Estimated
Wed 04:49:15 PM 9.6369 90.5228 301° West  Level Estimated
Wed 04:50:15 PM 9.7004 90.4151 301° West  Level Estimated
Wed 04:51:15 PM 9.7639 90.3074 301° West  Level Estimated
Wed 04:52:15 PM 9.8274 90.1996 301° West  Level Estimated
Wed 04:53:15 PM 9.8909 90.0918 301° West  Level Estimated
Wed 04:54:15 PM 9.9543 89.9839 301° West  Level Estimated
Wed 04:55:15 PM 10.0177 89.8761 301° West  Level Estimated
Wed 04:56:15 PM 10.0811 89.7681 301° West  Level Estimated
Wed 04:57:15 PM 10.1444 89.6601 301° West  Level Estimated
Wed 04:58:15 PM 10.2077 89.5521 301° West  Level Estimated
Wed 04:59:15 PM 10.2709 89.4441 301° West  Level Estimated
Wed 05:00:15 PM 10.3341 89.3360 301° West  Level Estimated
Wed 05:01:15 PM 10.3973 89.2278 301° West  Level Estimated
Wed 05:02:15 PM 10.4604 89.1196 301° West  Level Estimated
Wed 05:03:15 PM 10.5235 89.0114 301° West  Level Estimated
Wed 05:04:15 PM 10.5866 88.9031 301° West  Level Estimated
Wed 05:05:15 PM 10.6496 88.7948 301° West  Level Estimated
Wed 05:06:15 PM 10.7126 88.6864 301° West  Level Estimated
Wed 05:07:15 PM 10.7756 88.5780 301° West  Level Estimated
Wed 05:08:15 PM 10.8385 88.4695 301° West  Level Estimated
Wed 05:09:15 PM 10.9014 88.3610 301° West  Level Estimated
Wed 05:10:15 PM 10.9642 88.2525 301° West  Level Estimated
Wed 05:11:15 PM 11.0270 88.1439 300° West  Level Estimated
Wed 05:12:15 PM 11.0898 88.0352 300° West  Level Estimated
Wed 05:13:15 PM 11.1525 87.9266 300° West  Level Estimated
Wed 05:14:15 PM 11.2152 87.8178 300° West  Level Estimated
Wed 05:15:15 PM 11.2779 87.7090 300° West  Level Estimated
Wed 05:16:15 PM 11.3405 87.6002 300° West  Level Estimated
Wed 05:17:15 PM 11.4031 87.4913 300° West  Level Estimated
Wed 05:18:15 PM 11.4656 87.3824 300° West  Level Estimated
Wed 05:19:15 PM 11.5281 87.2734 300° West  Level Estimated
Wed 05:20:15 PM 11.5905 87.1644 300° West  Level Estimated
Wed 05:21:15 PM 11.6529 87.0553 300° West  Level Estimated
Wed 05:22:15 PM 11.7153 86.9462 300° West  Level Estimated
Wed 05:23:15 PM 11.7776 86.8370 300° West  Level Estimated
Wed 05:24:15 PM 11.8399 86.7278 300° West  Level Estimated
Wed 05:25:15 PM 11.9021 86.6186 300° West  Level Estimated
Wed 05:26:15 PM 11.9643 86.5092 300° West  Level Estimated
Wed 05:27:15 PM 12.0265 86.3999 300° West  Level Estimated
Wed 05:28:15 PM 12.0886 86.2904 300° West  Level Estimated
Wed 05:29:15 PM 12.1507 86.1810 300° West  Level Estimated
Wed 05:30:15 PM 12.2127 86.0714 300° West  Level Estimated
Wed 05:31:15 PM 12.2747 85.9619 300° West  Level Estimated
Wed 05:32:15 PM 12.3366 85.8523 300° West  Level Estimated
Wed 05:33:15 PM 12.3985 85.7426 300° West  Level Estimated
Wed 05:34:15 PM 12.4604 85.6329 300° West  Level Estimated
Wed 05:35:15 PM 12.5222 85.5231 300° West  Level Estimated
Wed 05:36:15 PM 12.5840 85.4132 300° West  Level Estimated
Wed 05:37:15 PM 12.6457 85.3034 300° West  Level Estimated
Wed 05:38:15 PM 12.7073 85.1934 300° West  Level Estimated
Wed 05:39:15 PM 12.7690 85.0834 300° West  Level Estimated
Wed 05:40:15 PM 12.8306 84.9734 300° West  Level Estimated
Wed 05:41:15 PM 12.8921 84.8633 300° West  Level Estimated
Wed 05:42:15 PM 12.9536 84.7531 300° West  Level Estimated
Wed 05:43:15 PM 13.0150 84.6429 300° West  Level Estimated
Wed 05:44:15 PM 13.0764 84.5326 300° West  Level Estimated
Wed 05:45:15 PM 13.1378 84.4223 300° West  Level Estimated
Wed 05:46:15 PM 13.1991 84.3119 300° West  Level Estimated
Wed 05:47:15 PM 13.2604 84.2015 300° West  Level Estimated
Wed 05:48:15 PM 13.3216 84.0910 300° West  Level Estimated
Wed 05:49:15 PM 13.3827 83.9805 300° West  Level Estimated
Wed 05:50:15 PM 13.4438 83.8699 300° West  Level Estimated
Wed 05:51:15 PM 13.5049 83.7592 300° West  Level Estimated
Wed 05:52:15 PM 13.5659 83.6485 300° West  Level Estimated
Wed 05:53:15 PM 13.6269 83.5378 300° West  Level Estimated
Wed 05:54:15 PM 13.6878 83.4269 299° West  Level Estimated
Wed 05:55:15 PM 13.7487 83.3160 299° West  Level Estimated
Wed 05:56:15 PM 13.8095 83.2051 299° West  Level Estimated
Wed 05:57:15 PM 13.8703 83.0941 299° West  Level Estimated
Wed 05:58:15 PM 13.9310 82.9830 299° West  Level Estimated
Wed 05:59:15 PM 13.9917 82.8719 299° West  Level Estimated
Wed 06:00:15 PM 14.0523 82.7608 299° West  Level Estimated
Wed 06:01:15 PM 14.1129 82.6495 299° West  Level Estimated
Wed 06:02:15 PM 14.1734 82.5382 299° West  Level Estimated
Wed 06:03:15 PM 14.2338 82.4269 299° West  Level Estimated
Wed 06:04:15 PM 14.2943 82.3155 299° West  Level Estimated
Wed 06:05:15 PM 14.3546 82.2040 299° West  Level Estimated
Wed 06:06:15 PM 14.4149 82.0925 299° West  Level Estimated
Wed 06:07:15 PM 14.4752 81.9809 299° West  Level Estimated
Wed 06:08:15 PM 14.5354 81.8692 299° West  Level Estimated
Wed 06:09:15 PM 14.5955 81.7575 299° West  Level Estimated
Wed 06:10:15 PM 14.6557 81.6458 299° West  Level Estimated
Wed 06:11:15 PM 14.7157 81.5339 299° West  Level Estimated
Wed 06:12:15 PM 14.7757 81.4220 299° West  Level Estimated
Wed 06:13:15 PM 14.8356 81.3101 299° West  Level Estimated
Wed 06:14:15 PM 14.8955 81.1981 299° West  Level Estimated
Wed 06:15:15 PM 14.9553 81.0860 299° West  Level Estimated
Wed 06:16:15 PM 15.0151 80.9738 299° West  Level Estimated
Wed 06:17:15 PM 15.0749 80.8616 299° West  Level Estimated
Wed 06:18:15 PM 15.1345 80.7494 299° West  Level Estimated
Wed 06:19:15 PM 15.1941 80.6370 299° West  Level Estimated
Wed 06:20:15 PM 15.2537 80.5246 299° West  Level Estimated
Wed 06:21:15 PM 15.3132 80.4122 299° West  Level Estimated
Wed 06:22:15 PM 15.3726 80.2996 299° West  Level Estimated
Wed 06:23:15 PM 15.4320 80.1870 299° West  Level Estimated
Wed 06:24:15 PM 15.4913 80.0744 299° West  Level Estimated
Wed 06:25:15 PM 15.5506 79.9617 299° West  Level Estimated
Wed 06:26:15 PM 15.6098 79.8489 299° West  Level Estimated
Wed 06:27:15 PM 15.6690 79.7361 299° West  Level Estimated
Wed 06:28:15 PM 15.7281 79.6232 299° West  Level Estimated
Wed 06:29:15 PM 15.7871 79.5102 298° West  Level Estimated
Wed 06:30:15 PM 15.8461 79.3971 298° West  Level Estimated
Wed 06:31:15 PM 15.9050 79.2840 298° West  Level Estimated
Wed 06:32:15 PM 15.9639 79.1708 298° West  Level Estimated
Wed 06:33:15 PM 16.0227 79.0576 298° West  Level Estimated
Wed 06:34:15 PM 16.0814 78.9443 298° West  Level Estimated
Wed 06:35:15 PM 16.1401 78.8309 298° West  Level Estimated
Wed 06:36:15 PM 16.1988 78.7175 298° West  Level Estimated
Wed 06:37:15 PM 16.2573 78.6040 298° West  Level Estimated
Wed 06:38:15 PM 16.3158 78.4904 298° West  Level Estimated
Wed 06:39:15 PM 16.3743 78.3767 298° West  Level Estimated
Wed 06:40:15 PM 16.4327 78.2630 298° West  Level Estimated
Wed 06:41:15 PM 16.4910 78.1492 298° West  Level Estimated
Wed 06:42:15 PM 16.5493 78.0354 298° West  Level Estimated
Wed 06:43:15 PM 16.6075 77.9215 298° West  Level Estimated
Wed 06:44:15 PM 16.6656 77.8075 298° West  Level Estimated
Wed 06:45:15 PM 16.7237 77.6934 298° West  Level Estimated
Wed 06:46:15 PM 16.7817 77.5793 298° West  Level Estimated
Wed 06:47:15 PM 16.8396 77.4651 298° West  Level Estimated
Wed 06:48:15 PM 16.8975 77.3508 298° West  Level Estimated
Wed 06:49:15 PM 16.9554 77.2365 298° West  Level Estimated
Wed 06:50:15 PM 17.0131 77.1221 298° West  Level Estimated
Wed 06:51:15 PM 17.0708 77.0076 298° West  Level Estimated
Wed 06:52:15 PM 17.1284 76.8931 298° West  Level Estimated
Wed 06:53:15 PM 17.1860 76.7785 298° West  Level Estimated
Wed 06:54:15 PM 17.2435 76.6638 298° West  Level Estimated
Wed 06:55:15 PM 17.3009 76.5490 298° West  Level Estimated
Wed 06:56:15 PM 17.3583 76.4342 298° West  Level Estimated
Wed 06:57:15 PM 17.4156 76.3192 298° West  Level Estimated
Wed 06:58:15 PM 17.4729 76.2043 298° West  Level Estimated
Wed 06:59:15 PM 17.5300 76.0892 298° West  Level Estimated
Wed 07:00:15 PM 17.5871 75.9741 297° West  Level Estimated
Wed 07:01:15 PM 17.6442 75.8589 297° West  Level Estimated
Wed 07:02:15 PM 17.7012 75.7436 297° West  Level Estimated
Wed 07:03:15 PM 17.7581 75.6283 297° West  Level Estimated
Wed 07:04:15 PM 17.8149 75.5129 297° West  Level Estimated
Wed 07:05:15 PM 17.8717 75.3974 297° West  Level Estimated
Wed 07:06:15 PM 17.9284 75.2818 297° West  Level Estimated
Wed 07:07:15 PM 17.9850 75.1662 297° West  Level Estimated
Wed 07:08:15 PM 18.0416 75.0505 297° West  Level Estimated
Wed 07:09:15 PM 18.0981 74.9347 297° West  Level Estimated
Wed 07:10:15 PM 18.1545 74.8188 297° West  Level Estimated
Wed 07:11:15 PM 18.2109 74.7029 297° West  Level Estimated
Wed 07:12:15 PM 18.2672 74.5869 297° West  Level Estimated
Wed 07:13:15 PM 18.3234 74.4708 297° West  Level Estimated
Wed 07:14:15 PM 18.3795 74.3546 297° West  Level Estimated
Wed 07:15:15 PM 18.4356 74.2384 297° West  Level Estimated
Wed 07:16:15 PM 18.4916 74.1221 297° West  Level Estimated
Wed 07:17:15 PM 18.5476 74.0057 297° West  Level Estimated
Wed 07:18:15 PM 18.6034 73.8892 297° West  Level Estimated
Wed 07:19:15 PM 18.6592 73.7727 297° West  Level Estimated
Wed 07:20:15 PM 18.7149 73.6561 297° West  Level Estimated
Wed 07:21:15 PM 18.7706 73.5394 297° West  Level Estimated
Wed 07:22:15 PM 18.8262 73.4226 297° West  Level Estimated
Wed 07:23:15 PM 18.8817 73.3057 297° West  Level Estimated
Wed 07:24:15 PM 18.9371 73.1888 297° West  Level Estimated
Wed 07:25:15 PM 18.9925 73.0718 297° West  Level Estimated
Wed 07:26:15 PM 19.0478 72.9547 297° West  Level Estimated
Wed 07:27:15 PM 19.1030 72.8376 116° Southeast  Level Estimated
Wed 07:28:15 PM 19.0478 72.9547 297° West  Level Estimated
Wed 07:29:15 PM 19.1030 72.8376 116° Southeast  Level Estimated
Wed 07:30:15 PM 19.0478 72.9547 297° West  Level Estimated
Wed 07:31:15 PM 19.1030 72.8376 116° Southeast  Level Estimated
Wed 07:32:15 PM 19.0478 72.9547 297° West  Level Estimated
Wed 07:33:15 PM 19.1030 72.8376 116° Southeast  Level Estimated
Wed 07:34:15 PM 19.0478 72.9547 297° West  Level Estimated
Wed 07:35:15 PM 19.1030 72.8376 297° West  Level Estimated

Login

Don't have an account? Register now (free) for customized features, flight alerts, and more!